sensor_id;sensor_type;location;lat;lon;timestamp;pressure;altitude;pressure_sealevel;temperature;humidity
63700;BME280;49845;47.130;142.766;2023-03-21T00:01:37;100376.22;;;7.30;65.75
63700;BME280;49845;47.130;142.766;2023-03-21T00:04:08;100381.41;;;7.18;66.02
63700;BME280;49845;47.130;142.766;2023-03-21T00:06:39;100380.56;;;7.22;65.75
63700;BME280;49845;47.130;142.766;2023-03-21T00:09:11;100371.91;;;7.22;65.46
63700;BME280;49845;47.130;142.766;2023-03-21T00:11:42;100377.97;;;7.13;65.82
63700;BME280;49845;47.130;142.766;2023-03-21T00:14:12;100378.81;;;7.06;65.89
63700;BME280;49845;47.130;142.766;2023-03-21T00:16:46;100376.22;;;7.06;66.23
63700;BME280;49845;47.130;142.766;2023-03-21T00:19:20;100380.56;;;7.07;66.03
63700;BME280;49845;47.130;142.766;2023-03-21T00:21:53;100390.09;;;7.02;66.39
63700;BME280;49845;47.130;142.766;2023-03-21T00:24:36;100384.91;;;6.86;66.11
63700;BME280;49845;47.130;142.766;2023-03-21T00:27:10;100377.09;;;6.99;66.30
63700;BME280;49845;47.130;142.766;2023-03-21T00:30:06;100375.34;;;7.13;65.69
63700;BME280;49845;47.130;142.766;2023-03-21T00:32:37;100365.84;;;7.00;65.82
63700;BME280;49845;47.130;142.766;2023-03-21T00:35:22;100379.69;;;6.99;66.01
63700;BME280;49845;47.130;142.766;2023-03-21T00:38:13;100373.63;;;6.90;66.32
63700;BME280;49845;47.130;142.766;2023-03-21T00:40:46;100377.09;;;6.89;66.46
63700;BME280;49845;47.130;142.766;2023-03-21T00:43:19;100362.38;;;6.95;66.56
63700;BME280;49845;47.130;142.766;2023-03-21T00:45:50;100329.47;;;6.78;66.46
63700;BME280;49845;47.130;142.766;2023-03-21T00:48:21;100365.84;;;7.03;66.46
63700;BME280;49845;47.130;142.766;2023-03-21T00:50:53;100363.22;;;7.18;65.92
63700;BME280;49845;47.130;142.766;2023-03-21T00:53:27;100312.19;;;6.86;65.85
63700;BME280;49845;47.130;142.766;2023-03-21T00:56:00;100360.63;;;7.06;65.63
63700;BME280;49845;47.130;142.766;2023-03-21T00:58:30;100365.81;;;7.18;65.91
63700;BME280;49845;47.130;142.766;2023-03-21T01:01:01;100367.56;;;7.13;65.43
63700;BME280;49845;47.130;142.766;2023-03-21T01:03:33;100365.84;;;7.20;65.59
63700;BME280;49845;47.130;142.766;2023-03-21T01:06:10;100375.34;;;7.24;65.55
63700;BME280;49845;47.130;142.766;2023-03-21T01:08:42;100331.19;;;7.10;65.23
63700;BME280;49845;47.130;142.766;2023-03-21T01:11:23;100366.69;;;7.34;65.24
63700;BME280;49845;47.130;142.766;2023-03-21T01:13:54;100350.22;;;7.27;65.37
63700;BME280;49845;47.130;142.766;2023-03-21T01:16:45;100369.28;;;7.35;65.23
63700;BME280;49845;47.130;142.766;2023-03-21T01:19:17;100332.91;;;7.26;65.17
63700;BME280;49845;47.130;142.766;2023-03-21T01:21:57;100361.44;;;7.52;64.91
63700;BME280;49845;47.130;142.766;2023-03-21T01:24:28;100362.28;;;7.62;64.68
63700;BME280;49845;47.130;142.766;2023-03-21T01:27:03;100359.66;;;7.74;64.48
63700;BME280;49845;47.130;142.766;2023-03-21T01:29:33;100353.63;;;7.66;64.15
63700;BME280;49845;47.130;142.766;2023-03-21T01:32:04;100355.31;;;7.70;64.34
63700;BME280;49845;47.130;142.766;2023-03-21T01:34:35;100347.53;;;7.69;64.14
63700;BME280;49845;47.130;142.766;2023-03-21T01:37:05;100327.66;;;7.54;63.91
63700;BME280;49845;47.130;142.766;2023-03-21T01:39:35;100353.59;;;7.63;63.91
63700;BME280;49845;47.130;142.766;2023-03-21T01:42:10;100343.22;;;7.60;64.60
63700;BME280;49845;47.130;142.766;2023-03-21T01:44:53;100347.56;;;7.58;64.68
63700;BME280;49845;47.130;142.766;2023-03-21T01:47:24;100306.88;;;7.45;64.66
63700;BME280;49845;47.130;142.766;2023-03-21T01:49:56;100325.03;;;7.52;64.37
63700;BME280;49845;47.130;142.766;2023-03-21T01:52:31;100331.88;;;7.78;64.08
63700;BME280;49845;47.130;142.766;2023-03-21T01:55:08;100258.41;;;7.31;64.53
63700;BME280;49845;47.130;142.766;2023-03-21T01:57:45;100312.88;;;7.61;64.16
63700;BME280;49845;47.130;142.766;2023-03-21T02:00:32;100316.34;;;7.61;63.95
63700;BME280;49845;47.130;142.766;2023-03-21T02:03:06;100324.09;;;7.76;64.20
63700;BME280;49845;47.130;142.766;2023-03-21T02:05:53;100301.59;;;7.66;63.06
63700;BME280;49845;47.130;142.766;2023-03-21T02:08:25;100317.19;;;7.63;63.53
63700;BME280;49845;47.130;142.766;2023-03-21T02:11:06;100322.41;;;7.69;63.62
63700;BME280;49845;47.130;142.766;2023-03-21T02:13:39;100311.09;;;7.75;63.72
63700;BME280;49845;47.130;142.766;2023-03-21T02:16:15;100314.53;;;7.78;63.73
63700;BME280;49845;47.130;142.766;2023-03-21T02:18:53;100312.78;;;7.84;63.45
63700;BME280;49845;47.130;142.766;2023-03-21T02:22:03;100309.31;;;7.85;63.01
63700;BME280;49845;47.130;142.766;2023-03-21T02:27:51;100296.34;;;7.82;62.77
63700;BME280;49845;47.130;142.766;2023-03-21T02:33:41;100300.66;;;7.83;62.50
63700;BME280;49845;47.130;142.766;2023-03-21T02:36:32;100206.41;;;7.25;62.49
63700;BME280;49845;47.130;142.766;2023-03-21T02:39:12;100299.78;;;7.81;62.28
63700;BME280;49845;47.130;142.766;2023-03-21T02:41:47;100297.16;;;7.85;62.33
63700;BME280;49845;47.130;142.766;2023-03-21T02:44:23;100272.03;;;7.83;62.36
63700;BME280;49845;47.130;142.766;2023-03-21T02:46:58;100255.63;;;7.71;62.10
63700;BME280;49845;47.130;142.766;2023-03-21T02:49:36;100294.53;;;7.93;62.16
63700;BME280;49845;47.130;142.766;2023-03-21T02:52:13;100299.75;;;7.90;62.06
63700;BME280;49845;47.130;142.766;2023-03-21T02:55:05;100253.06;;;7.62;62.13
63700;BME280;49845;47.130;142.766;2023-03-21T02:57:42;100251.28;;;7.70;62.46
63700;BME280;49845;47.130;142.766;2023-03-21T03:00:17;100284.97;;;7.98;61.71
63700;BME280;49845;47.130;142.766;2023-03-21T03:02:49;100282.34;;;7.98;62.14
63700;BME280;49845;47.130;142.766;2023-03-21T03:05:38;100280.66;;;7.94;62.02
63700;BME280;49845;47.130;142.766;2023-03-21T03:08:26;100259.03;;;7.83;62.33
63700;BME280;49845;47.130;142.766;2023-03-21T03:11:23;100277.94;;;8.11;61.66
63700;BME280;49845;47.130;142.766;2023-03-21T03:14:08;100274.41;;;8.24;61.73
63700;BME280;49845;47.130;142.766;2023-03-21T03:17:13;100267.50;;;8.20;61.40
63700;BME280;49845;47.130;142.766;2023-03-21T03:19:57;100272.63;;;8.26;61.30
63700;BME280;49845;47.130;142.766;2023-03-21T03:22:47;100249.34;;;8.08;61.22
63700;BME280;49845;47.130;142.766;2023-03-21T03:25:22;100270.88;;;8.34;61.42
63700;BME280;49845;47.130;142.766;2023-03-21T03:28:12;100260.47;;;8.31;61.02
63700;BME280;49845;47.130;142.766;2023-03-21T03:30:45;100250.97;;;8.29;61.07
63700;BME280;49845;47.130;142.766;2023-03-21T03:33:35;100266.63;;;8.19;61.48
63700;BME280;49845;47.130;142.766;2023-03-21T03:36:10;100267.41;;;8.32;61.13
63700;BME280;49845;47.130;142.766;2023-03-21T03:38:58;100261.28;;;8.41;61.20
63700;BME280;49845;47.130;142.766;2023-03-21T03:41:34;100246.53;;;8.45;60.54
63700;BME280;49845;47.130;142.766;2023-03-21T03:44:28;100259.44;;;8.55;60.55
63700;BME280;49845;47.130;142.766;2023-03-21T03:47:02;100262.09;;;8.48;60.76
63700;BME280;49845;47.130;142.766;2023-03-21T03:49:38;100255.22;;;8.40;60.40
63700;BME280;49845;47.130;142.766;2023-03-21T03:52:15;100263.06;;;8.33;60.60
63700;BME280;49845;47.130;142.766;2023-03-21T03:54:48;100263.88;;;8.38;61.04
63700;BME280;49845;47.130;142.766;2023-03-21T03:57:20;100263.03;;;8.36;61.40
63700;BME280;49845;47.130;142.766;2023-03-21T03:59:52;100253.47;;;8.38;61.43
63700;BME280;49845;47.130;142.766;2023-03-21T04:02:23;100259.59;;;8.34;61.18
63700;BME280;49845;47.130;142.766;2023-03-21T04:04:53;100253.50;;;8.35;61.55
63700;BME280;49845;47.130;142.766;2023-03-21T04:07:25;100254.38;;;8.41;61.26
63700;BME280;49845;47.130;142.766;2023-03-21T04:09:56;100242.19;;;8.42;61.08
63700;BME280;49845;47.130;142.766;2023-03-21T04:12:26;100245.75;;;8.29;61.09
63700;BME280;49845;47.130;142.766;2023-03-21T04:14:59;100249.22;;;8.28;61.50
63700;BME280;49845;47.130;142.766;2023-03-21T04:17:36;100233.66;;;8.21;61.32
63700;BME280;49845;47.130;142.766;2023-03-21T04:20:08;100228.50;;;8.12;61.56
63700;BME280;49845;47.130;142.766;2023-03-21T04:22:50;100230.31;;;7.99;61.54
63700;BME280;49845;47.130;142.766;2023-03-21T04:25:21;100239.00;;;7.97;61.77
63700;BME280;49845;47.130;142.766;2023-03-21T04:28:00;100225.25;;;7.80;62.49
63700;BME280;49845;47.130;142.766;2023-03-21T04:30:33;100235.59;;;7.87;62.41
63700;BME280;49845;47.130;142.766;2023-03-21T04:33:05;100226.91;;;7.90;62.34
63700;BME280;49845;47.130;142.766;2023-03-21T04:35:35;100228.59;;;7.97;62.28
63700;BME280;49845;47.130;142.766;2023-03-21T04:38:06;100225.25;;;7.75;62.32
63700;BME280;49845;47.130;142.766;2023-03-21T04:40:36;100235.72;;;7.64;62.44
63700;BME280;49845;47.130;142.766;2023-03-21T04:43:07;100240.09;;;7.59;62.84
63700;BME280;49845;47.130;142.766;2023-03-21T04:45:39;100232.22;;;7.68;62.64
63700;BME280;49845;47.130;142.766;2023-03-21T04:48:10;100213.13;;;7.72;62.26
63700;BME280;49845;47.130;142.766;2023-03-21T04:50:42;100239.81;;;8.05;61.55
63700;BME280;49845;47.130;142.766;2023-03-21T04:53:13;100232.00;;;8.11;60.94
63700;BME280;49845;47.130;142.766;2023-03-21T04:55:43;100229.38;;;8.11;60.68
63700;BME280;49845;47.130;142.766;2023-03-21T04:58:16;100244.88;;;8.24;60.58
63700;BME280;49845;47.130;142.766;2023-03-21T05:00:49;100228.53;;;8.09;60.51
63700;BME280;49845;47.130;142.766;2023-03-21T05:03:20;100229.38;;;8.08;60.46
63700;BME280;49845;47.130;142.766;2023-03-21T05:05:51;100238.97;;;8.03;60.97
63700;BME280;49845;47.130;142.766;2023-03-21T05:08:21;100226.91;;;7.90;61.26
63700;BME280;49845;47.130;142.766;2023-03-21T05:10:52;100242.53;;;7.87;60.85
63700;BME280;49845;47.130;142.766;2023-03-21T05:13:23;100242.53;;;7.84;61.26
63700;BME280;49845;47.130;142.766;2023-03-21T05:15:55;100241.69;;;7.85;61.51
63700;BME280;49845;47.130;142.766;2023-03-21T05:18:25;100239.97;;;7.82;61.55
63700;BME280;49845;47.130;142.766;2023-03-21T05:20:57;100240.84;;;7.80;61.20
63700;BME280;49845;47.130;142.766;2023-03-21T05:23:28;100236.50;;;7.82;60.93
63700;BME280;49845;47.130;142.766;2023-03-21T05:25:59;100229.59;;;7.74;61.00
63700;BME280;49845;47.130;142.766;2023-03-21T05:28:29;100239.16;;;7.72;60.97
63700;BME280;49845;47.130;142.766;2023-03-21T05:31:05;100232.25;;;7.65;61.08
63700;BME280;49845;47.130;142.766;2023-03-21T05:33:36;100247.84;;;7.71;61.08
63700;BME280;49845;47.130;142.766;2023-03-21T05:36:08;100239.97;;;7.76;60.67
63700;BME280;49845;47.130;142.766;2023-03-21T05:38:39;100245.19;;;7.79;60.84
63700;BME280;49845;47.130;142.766;2023-03-21T05:41:13;100251.28;;;7.76;60.86
63700;BME280;49845;47.130;142.766;2023-03-21T05:43:45;100258.22;;;7.74;60.91
63700;BME280;49845;47.130;142.766;2023-03-21T05:46:18;100261.66;;;7.73;60.84
63700;BME280;49845;47.130;142.766;2023-03-21T05:48:49;100234.03;;;7.54;60.51
63700;BME280;49845;47.130;142.766;2023-03-21T05:51:19;100246.97;;;7.74;60.62
63700;BME280;49845;47.130;142.766;2023-03-21T05:53:50;100261.69;;;7.76;60.23
63700;BME280;49845;47.130;142.766;2023-03-21T05:56:20;100252.09;;;7.78;60.34
63700;BME280;49845;47.130;142.766;2023-03-21T05:58:51;100261.59;;;7.92;60.36
63700;BME280;49845;47.130;142.766;2023-03-21T06:01:23;100248.53;;;7.99;59.82
63700;BME280;49845;47.130;142.766;2023-03-21T06:03:54;100259.72;;;8.12;59.47
63700;BME280;49845;47.130;142.766;2023-03-21T06:06:24;100251.03;;;8.16;59.14
63700;BME280;49845;47.130;142.766;2023-03-21T06:08:55;100257.78;;;8.45;59.16
63700;BME280;49845;47.130;142.766;2023-03-21T06:11:27;100259.44;;;8.55;58.22
63700;BME280;49845;47.130;142.766;2023-03-21T06:13:58;100261.06;;;8.72;57.90
63700;BME280;49845;47.130;142.766;2023-03-21T06:16:30;100269.72;;;8.71;57.48
63700;BME280;49845;47.130;142.766;2023-03-21T06:19:01;100265.41;;;8.71;57.59
63700;BME280;49845;47.130;142.766;2023-03-21T06:21:31;100266.34;;;8.62;57.60
63700;BME280;49845;47.130;142.766;2023-03-21T06:24:02;100238.72;;;8.43;57.66
63700;BME280;49845;47.130;142.766;2023-03-21T06:26:32;100206.63;;;8.33;57.51
63700;BME280;49845;47.130;142.766;2023-03-21T06:29:03;100270.66;;;8.67;57.29
63700;BME280;49845;47.130;142.766;2023-03-21T06:31:36;100254.19;;;8.58;57.30
63700;BME280;49845;47.130;142.766;2023-03-21T06:34:06;100254.16;;;8.64;57.08
63700;BME280;49845;47.130;142.766;2023-03-21T06:36:38;100268.84;;;8.75;56.86
63700;BME280;49845;47.130;142.766;2023-03-21T06:39:08;100274.03;;;8.75;56.92
63700;BME280;49845;47.130;142.766;2023-03-21T06:41:38;100273.19;;;8.73;56.52
63700;BME280;49845;47.130;142.766;2023-03-21T06:44:09;100274.13;;;8.67;56.57
63700;BME280;49845;47.130;142.766;2023-03-21T06:46:41;100271.59;;;8.56;56.78
63700;BME280;49845;47.130;142.766;2023-03-21T06:49:11;100264.75;;;8.43;56.94
63700;BME280;49845;47.130;142.766;2023-03-21T06:51:42;100262.16;;;8.40;56.36
63700;BME280;49845;47.130;142.766;2023-03-21T06:54:13;100271.69;;;8.41;56.62
63700;BME280;49845;47.130;142.766;2023-03-21T06:56:45;100283.84;;;8.42;56.57
63700;BME280;49845;47.130;142.766;2023-03-21T06:59:16;100269.97;;;8.40;56.16
63700;BME280;49845;47.130;142.766;2023-03-21T07:01:48;100270.03;;;8.28;56.24
63700;BME280;49845;47.130;142.766;2023-03-21T07:04:18;100278.78;;;8.17;56.56
63700;BME280;49845;47.130;142.766;2023-03-21T07:06:49;100278.84;;;8.04;56.60
63700;BME280;49845;47.130;142.766;2023-03-21T07:09:19;100278.91;;;7.93;57.00
63700;BME280;49845;47.130;142.766;2023-03-21T07:11:51;100278.97;;;7.84;57.14
63700;BME280;49845;47.130;142.766;2023-03-21T07:14:23;100276.34;;;7.84;57.51
63700;BME280;49845;47.130;142.766;2023-03-21T07:16:55;100280.81;;;7.66;57.31
63700;BME280;49845;47.130;142.766;2023-03-21T07:19:25;100274.72;;;7.63;57.74
63700;BME280;49845;47.130;142.766;2023-03-21T07:21:56;100287.75;;;7.55;57.91
63700;BME280;49845;47.130;142.766;2023-03-21T07:24:27;100284.31;;;7.50;58.30
63700;BME280;49845;47.130;142.766;2023-03-21T07:26:58;100287.78;;;7.46;58.39
63700;BME280;49845;47.130;142.766;2023-03-21T07:29:28;100286.06;;;7.39;59.12
63700;BME280;49845;47.130;142.766;2023-03-21T07:32:00;100288.72;;;7.32;58.95
63700;BME280;49845;47.130;142.766;2023-03-21T07:34:31;100250.69;;;6.99;59.47
63700;BME280;49845;47.130;142.766;2023-03-21T07:37:02;100284.41;;;7.13;59.98
63700;BME280;49845;47.130;142.766;2023-03-21T07:39:34;100284.44;;;7.07;59.79
63700;BME280;49845;47.130;142.766;2023-03-21T07:42:05;100290.47;;;7.01;60.16
63700;BME280;49845;47.130;142.766;2023-03-21T07:44:41;100298.31;;;7.00;60.65
63700;BME280;49845;47.130;142.766;2023-03-21T07:47:13;100287.91;;;6.90;60.92
63700;BME280;49845;47.130;142.766;2023-03-21T07:49:44;100300.91;;;6.81;61.18
63700;BME280;49845;47.130;142.766;2023-03-21T07:52:14;100247.25;;;6.36;62.49
63700;BME280;49845;47.130;142.766;2023-03-21T07:54:45;100298.31;;;6.51;63.51
63700;BME280;49845;47.130;142.766;2023-03-21T07:57:17;100293.97;;;6.39;64.26
63700;BME280;49845;47.130;142.766;2023-03-21T07:59:47;100294.81;;;6.30;65.47
63700;BME280;49845;47.130;142.766;2023-03-21T08:02:23;100298.25;;;6.14;66.84
63700;BME280;49845;47.130;142.766;2023-03-21T08:04:55;100307.75;;;6.10;67.16
63700;BME280;49845;47.130;142.766;2023-03-21T08:07:37;100313.81;;;6.04;68.32
63700;BME280;49845;47.130;142.766;2023-03-21T08:10:11;100325.84;;;5.96;69.24
63700;BME280;49845;47.130;142.766;2023-03-21T08:13:13;100327.53;;;5.88;69.46
63700;BME280;49845;47.130;142.766;2023-03-21T08:15:44;100327.47;;;5.73;70.41
63700;BME280;49845;47.130;142.766;2023-03-21T08:18:16;100331.78;;;5.65;71.33
63700;BME280;49845;47.130;142.766;2023-03-21T08:20:52;100337.78;;;5.54;71.87
63700;BME280;49845;47.130;142.766;2023-03-21T08:23:24;100301.34;;;5.27;72.17
63700;BME280;49845;47.130;142.766;2023-03-21T08:25:55;100267.50;;;5.01;73.63
63700;BME280;49845;47.130;142.766;2023-03-21T08:28:26;100335.91;;;5.32;73.63
63700;BME280;49845;47.130;142.766;2023-03-21T08:30:59;100335.84;;;5.23;74.12
63700;BME280;49845;47.130;142.766;2023-03-21T08:33:50;100349.75;;;5.37;74.79
63700;BME280;49845;47.130;142.766;2023-03-21T08:36:41;100306.38;;;5.02;74.78
63700;BME280;49845;47.130;142.766;2023-03-21T08:39:16;100352.25;;;5.20;75.06
63700;BME280;49845;47.130;142.766;2023-03-21T08:41:49;100348.75;;;5.18;75.51
63700;BME280;49845;47.130;142.766;2023-03-21T08:44:20;100355.66;;;5.16;76.12
63700;BME280;49845;47.130;142.766;2023-03-21T08:46:52;100361.66;;;5.10;76.33
63700;BME280;49845;47.130;142.766;2023-03-21T08:49:31;100360.78;;;5.07;76.98
63700;BME280;49845;47.130;142.766;2023-03-21T08:52:02;100359.78;;;4.94;77.65
63700;BME280;49845;47.130;142.766;2023-03-21T08:54:36;100370.19;;;4.97;77.87
63700;BME280;49845;47.130;142.766;2023-03-21T08:57:09;100365.84;;;4.93;78.36
63700;BME280;49845;47.130;142.766;2023-03-21T08:59:40;100371.00;;;4.90;78.64
63700;BME280;49845;47.130;142.766;2023-03-21T09:02:13;100370.13;;;4.88;79.62
63700;BME280;49845;47.130;142.766;2023-03-21T09:04:48;100370.97;;;4.88;79.35
63700;BME280;49845;47.130;142.766;2023-03-21T09:07:22;100375.28;;;4.85;79.98
63700;BME280;49845;47.130;142.766;2023-03-21T09:09:54;100363.09;;;4.74;79.68
63700;BME280;49845;47.130;142.766;2023-03-21T09:12:48;100370.03;;;4.79;79.78
63700;BME280;49845;47.130;142.766;2023-03-21T09:15:19;100364.81;;;4.72;79.99
63700;BME280;49845;47.130;142.766;2023-03-21T09:17:52;100363.13;;;4.78;79.75
63700;BME280;49845;47.130;142.766;2023-03-21T09:20:29;100381.28;;;4.82;80.04
63700;BME280;49845;47.130;142.766;2023-03-21T09:23:03;100377.81;;;4.80;80.38
63700;BME280;49845;47.130;142.766;2023-03-21T09:25:36;100375.19;;;4.79;80.19
63700;BME280;49845;47.130;142.766;2023-03-21T09:28:08;100387.34;;;4.83;80.16
63700;BME280;49845;47.130;142.766;2023-03-21T09:30:40;100378.66;;;4.78;80.53
63700;BME280;49845;47.130;142.766;2023-03-21T09:33:13;100389.00;;;4.74;81.18
63700;BME280;49845;47.130;142.766;2023-03-21T09:35:50;100388.09;;;4.71;81.84
63700;BME280;49845;47.130;142.766;2023-03-21T09:38:21;100388.09;;;4.74;81.63
63700;BME280;49845;47.130;142.766;2023-03-21T09:41:06;100391.56;;;4.73;82.14
63700;BME280;49845;47.130;142.766;2023-03-21T09:43:57;100395.88;;;4.72;83.08
63700;BME280;49845;47.130;142.766;2023-03-21T09:46:36;100399.28;;;4.71;83.21
63700;BME280;49845;47.130;142.766;2023-03-21T09:49:18;100393.25;;;4.68;83.09
63700;BME280;49845;47.130;142.766;2023-03-21T09:51:57;100402.78;;;4.73;83.21
63700;BME280;49845;47.130;142.766;2023-03-21T09:54:34;100392.41;;;4.70;83.19
63700;BME280;49845;47.130;142.766;2023-03-21T09:57:13;100359.28;;;4.39;83.20
63700;BME280;49845;47.130;142.766;2023-03-21T09:59:54;100413.09;;;4.67;83.61
63700;BME280;49845;47.130;142.766;2023-03-21T10:02:34;100397.44;;;4.58;83.84
63700;BME280;49845;47.130;142.766;2023-03-21T10:05:15;100394.81;;;4.53;83.67
63700;BME280;49845;47.130;142.766;2023-03-21T10:07:53;100413.84;;;4.59;83.91
63700;BME280;49845;47.130;142.766;2023-03-21T10:10:30;100406.88;;;4.53;84.00
63700;BME280;49845;47.130;142.766;2023-03-21T10:13:02;100402.56;;;4.50;83.91
63700;BME280;49845;47.130;142.766;2023-03-21T10:15:34;100412.06;;;4.53;84.05
63700;BME280;49845;47.130;142.766;2023-03-21T10:18:09;100399.00;;;4.41;84.51
63700;BME280;49845;47.130;142.766;2023-03-21T10:20:44;100413.72;;;4.45;84.22
63700;BME280;49845;47.130;142.766;2023-03-21T10:23:18;100420.59;;;4.44;84.66
63700;BME280;49845;47.130;142.766;2023-03-21T10:25:54;100313.81;;;3.78;84.42
63700;BME280;49845;47.130;142.766;2023-03-21T10:28:29;100407.56;;;4.37;84.58
63700;BME280;49845;47.130;142.766;2023-03-21T10:31:19;100414.47;;;4.35;84.74
63700;BME280;49845;47.130;142.766;2023-03-21T10:33:59;100405.81;;;4.32;84.62
63700;BME280;49845;47.130;142.766;2023-03-21T10:36:34;100427.41;;;4.39;85.11
63700;BME280;49845;47.130;142.766;2023-03-21T10:39:19;100404.00;;;4.25;85.72
63700;BME280;49845;47.130;142.766;2023-03-21T10:41:54;100427.38;;;4.33;85.92
63700;BME280;49845;47.130;142.766;2023-03-21T10:44:29;100415.16;;;4.21;86.46
63700;BME280;49845;47.130;142.766;2023-03-21T10:47:04;100402.00;;;4.03;87.04
63700;BME280;49845;47.130;142.766;2023-03-21T10:49:38;100427.00;;;4.04;87.37
63700;BME280;49845;47.130;142.766;2023-03-21T10:52:34;100417.44;;;3.97;88.25
63700;BME280;49845;47.130;142.766;2023-03-21T10:55:17;100414.72;;;3.86;88.78
63700;BME280;49845;47.130;142.766;2023-03-21T10:57:53;100338.13;;;3.27;88.65
63700;BME280;49845;47.130;142.766;2023-03-21T11:00:28;100424.00;;;3.73;89.33
63700;BME280;49845;47.130;142.766;2023-03-21T11:02:59;100423.06;;;3.66;89.64
63700;BME280;49845;47.130;142.766;2023-03-21T11:05:34;100420.31;;;3.56;90.03
63700;BME280;49845;47.130;142.766;2023-03-21T11:08:10;100365.53;;;3.19;90.65
63700;BME280;49845;47.130;142.766;2023-03-21T11:10:51;100436.78;;;3.62;91.08
63700;BME280;49845;47.130;142.766;2023-03-21T11:13:25;100445.38;;;3.61;91.02
63700;BME280;49845;47.130;142.766;2023-03-21T11:15:57;100446.31;;;3.65;91.54
63700;BME280;49845;47.130;142.766;2023-03-21T11:18:30;100437.63;;;3.60;91.38
63700;BME280;49845;47.130;142.766;2023-03-21T11:21:06;100430.69;;;3.59;91.11
63700;BME280;49845;47.130;142.766;2023-03-21T11:23:42;100445.38;;;3.61;91.50
63700;BME280;49845;47.130;142.766;2023-03-21T11:26:37;100452.25;;;3.61;91.32
63700;BME280;49845;47.130;142.766;2023-03-21T11:29:35;100433.84;;;3.39;91.39
63700;BME280;49845;47.130;142.766;2023-03-21T11:32:25;100450.31;;;3.46;91.94
63700;BME280;49845;47.130;142.766;2023-03-21T11:35:00;100414.59;;;3.19;91.66
63700;BME280;49845;47.130;142.766;2023-03-21T11:37:43;100458.72;;;3.34;92.23
63700;BME280;49845;47.130;142.766;2023-03-21T11:40:23;100453.59;;;3.36;92.59
63700;BME280;49845;47.130;142.766;2023-03-21T11:43:03;100457.94;;;3.38;92.69
63700;BME280;49845;47.130;142.766;2023-03-21T11:45:55;100459.63;;;3.36;92.49
63700;BME280;49845;47.130;142.766;2023-03-21T11:48:39;100457.75;;;3.26;92.70
63700;BME280;49845;47.130;142.766;2023-03-21T11:51:23;100464.78;;;3.36;93.11
63700;BME280;49845;47.130;142.766;2023-03-21T11:54:04;100452.53;;;3.23;92.89
63700;BME280;49845;47.130;142.766;2023-03-21T11:56:44;100486.22;;;3.31;93.06
63700;BME280;49845;47.130;142.766;2023-03-21T11:59:31;100472.38;;;3.26;92.89
63700;BME280;49845;47.130;142.766;2023-03-21T12:02:23;100473.19;;;3.23;93.34
63700;BME280;49845;47.130;142.766;2023-03-21T12:04:58;100481.78;;;3.22;93.70
63700;BME280;49845;47.130;142.766;2023-03-21T12:07:45;100486.00;;;3.17;93.41
63700;BME280;49845;47.130;142.766;2023-03-21T12:10:31;100478.09;;;3.08;93.20
63700;BME280;49845;47.130;142.766;2023-03-21T12:13:16;100483.09;;;2.98;93.49
63700;BME280;49845;47.130;142.766;2023-03-21T12:15:57;100491.78;;;3.03;93.83
63700;BME280;49845;47.130;142.766;2023-03-21T12:19:01;100495.28;;;3.06;93.86
63700;BME280;49845;47.130;142.766;2023-03-21T12:21:43;100497.00;;;3.07;94.22
63700;BME280;49845;47.130;142.766;2023-03-21T12:24:21;100499.56;;;3.05;94.49
63700;BME280;49845;47.130;142.766;2023-03-21T12:26:59;100482.19;;;2.96;94.34
63700;BME280;49845;47.130;142.766;2023-03-21T12:29:43;100497.72;;;2.99;94.38
63700;BME280;49845;47.130;142.766;2023-03-21T12:32:27;100500.25;;;2.96;93.96
63700;BME280;49845;47.130;142.766;2023-03-21T12:35:23;100472.38;;;2.77;94.01
63700;BME280;49845;47.130;142.766;2023-03-21T12:38:04;100508.81;;;2.92;94.31
63700;BME280;49845;47.130;142.766;2023-03-21T12:40:57;100506.19;;;2.91;94.06
63700;BME280;49845;47.130;142.766;2023-03-21T12:43:43;100493.00;;;2.77;93.60
63700;BME280;49845;47.130;142.766;2023-03-21T12:46:19;100522.34;;;2.82;93.63
63700;BME280;49845;47.130;142.766;2023-03-21T12:49:12;100517.00;;;2.71;93.21
63700;BME280;49845;47.130;142.766;2023-03-21T12:51:58;100514.22;;;2.61;93.24
63700;BME280;49845;47.130;142.766;2023-03-21T12:54:38;100496.63;;;2.41;93.19
63700;BME280;49845;47.130;142.766;2023-03-21T12:57:17;100490.47;;;2.34;93.18
63700;BME280;49845;47.130;142.766;2023-03-21T12:59:51;100521.00;;;2.57;93.74
63700;BME280;49845;47.130;142.766;2023-03-21T13:02:29;100516.53;;;2.48;93.33
63700;BME280;49845;47.130;142.766;2023-03-21T13:05:09;100522.50;;;2.46;93.17
63700;BME280;49845;47.130;142.766;2023-03-21T13:07:49;100526.81;;;2.45;93.57
63700;BME280;49845;47.130;142.766;2023-03-21T13:10:24;100530.16;;;2.41;93.67
63700;BME280;49845;47.130;142.766;2023-03-21T13:13:03;100521.34;;;2.30;93.58
63700;BME280;49845;47.130;142.766;2023-03-21T13:15:54;100517.84;;;2.28;93.69
63700;BME280;49845;47.130;142.766;2023-03-21T13:18:40;100516.03;;;2.24;93.70
63700;BME280;49845;47.130;142.766;2023-03-21T13:21:21;100524.53;;;2.20;93.94
63700;BME280;49845;47.130;142.766;2023-03-21T13:24:15;100494.00;;;1.99;93.90
63700;BME280;49845;47.130;142.766;2023-03-21T13:26:55;100531.44;;;2.21;94.59
63700;BME280;49845;47.130;142.766;2023-03-21T13:29:40;100519.47;;;2.23;94.41
63700;BME280;49845;47.130;142.766;2023-03-21T13:32:18;100528.91;;;2.22;94.38
63700;BME280;49845;47.130;142.766;2023-03-21T13:34:55;100524.53;;;2.20;94.69